Derwent, Ohio
Current Conditions -  °F | °C
As of 10:53 AM on Wednesday 22 Oct 2014 (Local Time) from KZZV Reporting Station
Overcast Overcast  
Wind Chill: 45°   Ceiling: 1600
Heat Index: 49°   Visibility: 10mi
Dew Point: 42°   Wind: 9mph
Humidity: 77%   Direction: 350°N
Pressure: 30.22"   Gusts: NA
Location:  39.92°N, 81.54°W
Report Text: KZZV 221453Z AUTO 35008KT 10SM OVC016 09/06 A3022 RMK AO2 SLP235 T00940056 53012
Loading
Personal Weather Stations






























Interactive Weather Map
Tropical Storm Tracking
New forecast layout! Learn more

10-Day Weather Forecast

Advertisements
Track Severe Weather on mobile